x

West Gulf - 207 Nm East Of Brownsville, Tx (42002) Wave Buoy

1:50am - Fri 9th Dec 2016 All times are CST. -6 hours from GMT.

  • Sig Wave height 14.4ft
  • Swell Direction
  • Peak Period 9s
  • Average Period 7s
  • Wind
    34mph, 40mph gusts
  • Sea Temp 77°f
  • Air Temp 68°f
  • Sea Pressure 1023.6mb
  • West Gulf - 207 Nm East Of Brownsville, Tx
  • West Gulf - 207 Nm East Of Brownsville, Tx

More Historic Weather Station data

Upgrade to MSW Pro to gain access to the past 30 days of data for over 8000 Wavebouys and Weather Stations around the globe.

Join Pro

Comparision Forecast

View Surf forecast
   
Fri 12/09 1:50am 14.5ft 9s 7s 34 40 mph 1023.6mb 77f 68f
12:50am 13.5ft 10s 7s 34 40 mph 1023.5mb 77f 68f
Thu 12/08 11:50pm 14ft 10s 7s 34 43 mph 1023.4mb 77f 68f
10:50pm 16ft 10s 7s 34 40 mph 1023.2mb 77f 68f
9:50pm 15ft 10s 7s 34 38 mph 1022.8mb 77f 69f
8:50pm 15ft 10s 7s 34 40 mph 1022.3mb 77f 70f
7:50pm 14.5ft 10s 7s 34 43 mph 1021.5mb 77f 71f
6:50pm 13ft 7s 7s 34 43 mph 1020mb 77f 72f
5:50pm 11.5ft 7s 6s 31 40 mph 1019.1mb 77f 72f
4:50pm 9ft 7s 6s 29 36 mph 1018.5mb 77f 74f
3:50pm 6ft 6s 5s 25 31 mph 1018.1mb 77f 75f
2:50pm 5ft 6s 5s 25 31 mph 1017.6mb 77f 75f
1:50pm 5ft 6s 5s 22 27 mph 1017.3mb 77f 76f
12:50pm 4.5ft 6s 5s 22 27 mph 1017.7mb 77f 75f
11:50am 4.5ft 6s 5s 18 22 mph 1018.2mb 77f 75f
10:50am 4ft 6s 4s 18 22 mph 1018.9mb 77f 75f
9:50am 4ft 6s 5s 20 25 mph 1019mb 77f 75f
8:50am 4.5ft 6s 5s 18 20 mph 1018.7mb 77f 75f
7:50am 4ft 5s 4s 16 18 mph 1018.4mb 77f 75f
6:50am 3.5ft 6s 4s 20 25 mph 1016.6mb 77f 75f
5:50am 3.5ft 6s 4s 18 22 mph 1016.7mb 77f 73f
4:50am 3.5ft 5s 4s 18 20 mph 1016.5mb 77f 73f
3:50am 3.5ft 6s 4s 11 20 mph 1016.5mb 77f 75f
2:50am 3.5ft 5s 4s 20 22 mph 1015.8mb 77f 76f
1:50am 3.5ft 5s 4s 16 20 mph 1016.5mb 77f 76f
Wed 12/07 11:50pm 3.5ft 5s 5s 16 18 mph 1017.3mb 77f 77f
10:50pm 3ft 7s 4s 16 20 mph 1017.5mb 77f 77f
9:50pm 3ft 5s 4s 16 20 mph 1017.3mb 77f 77f
8:50pm 3ft 4s 4s 16 18 mph 1017.2mb 77f 77f
7:50pm 2.5ft 7s 5s 13 16 mph 1016.9mb 78f 77f
6:50pm 2.5ft 7s 5s 13 16 mph 1016.5mb 78f 76f
5:50pm 2.5ft 7s 5s 13 18 mph 1015.7mb 78f 76f
4:50pm 2.5ft 7s 5s 13 16 mph 1015.2mb 78f 76f
3:50pm 2.5ft 7s 5s 11 13 mph 1015.1mb 78f 76f
2:50pm 2.5ft 7s 5s 11 16 mph 1015.1mb 78f 76f
1:50pm 2.5ft 7s 5s 11 13 mph 1015.1mb 78f 76f
12:50pm 2ft 7s 6s 11 13 mph 1016.1mb 78f 75f
11:50am 2ft 8s 6s 9 11 mph 1017.2mb 78f 76f
10:50am 2ft 7s 6s 9
mph
1018mb 78f 76f
9:50am 2ft 8s 6s 7 11 mph 1018.4mb 78f 75f
8:50am 2ft 7s 6s 7 9 mph 1018mb 77f 75f
7:50am 1.6ft 8s 6s 4 9 mph 1017.4mb 77f 74f
6:50am 1.6ft 7s 6s 7 9 mph 1016.8mb 77f 74f
5:50am 2ft 7s 6s 4 9 mph 1016.3mb 77f 74f
4:50am 2ft 7s 6s 4 7 mph 1015.7mb 77f 74f
3:50am 2ft 7s 5s 7
mph
1015.7mb 77f 74f
2:50am 2ft 7s 6s 7 9 mph 1015.6mb 77f 74f
1:50am 2ft 7s 6s 4 7 mph 1015.5mb 78f 74f
12:50am 2ft 7s 5s 7 9 mph 1015.7mb 78f 74f
Tue 12/06 11:50pm 2ft 7s 5s 7 9 mph 1015.8mb 78f 74f
10:50pm 2.5ft 8s 5s 4 7 mph 1016.1mb 78f 74f
9:50pm 2.5ft 8s 5s 2 4 mph 1016.1mb 78f 74f
8:50pm 2.5ft 8s 5s 2
mph
1015.9mb 78f 74f
7:50pm 2.5ft 8s 5s 2
mph
1015.5mb 78f 74f
6:50pm 2.5ft 8s 5s 2 4 mph 1014.8mb 78f 74f
5:50pm 2.5ft 8s 5s 2
mph
1014.2mb 78f 74f
4:50pm 2.5ft 8s 5s 2 4 mph 1013.8mb 78f 76f
3:50pm 2.5ft 7s 5s 4 7 mph 1013.7mb 78f 76f
2:50pm 3ft 8s 5s 4 7 mph 1013.6mb 78f 75f
1:50pm 3.5ft 7s 5s 4
mph
1013.6mb 78f 75f
12:50pm 3.5ft 7s 5s 2 4 mph 1014mb 78f 74f
11:50am 3.5ft 6s 5s 7 9 mph 1014.8mb 78f 74f
10:50am 3.5ft 6s 5s 4 7 mph 1015.7mb 78f 74f
9:50am 3.5ft 7s 5s 4 7 mph 1015.2mb 78f 74f
8:50am 4ft 6s 5s 2 4 mph 1014.7mb 78f 74f
7:50am 4.5ft 7s 5s 7 9 mph 1014.1mb 78f 74f
6:50am 4.5ft 6s 5s 9 11 mph 1013.4mb 78f 73f
5:50am 4.5ft 6s 5s 11 16 mph 1012.9mb 78f 73f
4:50am 4.5ft 6s 5s 13 18 mph 1012.3mb 78f 73f
3:50am 5ft 6s 5s 16 20 mph 1011.9mb 78f 73f
2:50am 4.5ft 7s 5s 16 18 mph 1011.6mb 78f 73f
1:50am 5ft 6s 5s 13 18 mph 1011.3mb 79f 72f
12:50am 6ft 6s 5s 13 18 mph 1011mb 79f 72f
Mon 12/05 11:50pm 6ft 7s 5s 20 22 mph 1010.8mb 79f 73f
10:50pm 6ft 6s 5s 20 25 mph 1010.8mb 79f 74f
9:50pm 6ft 6s 5s 22 25 mph 1010.2mb 80f 73f
8:50pm 6ft 6s 5s 20 22 mph 1009.6mb 80f 73f
7:50pm 6ft 6s 5s 22 29 mph 1008.9mb 80f 72f
5:50pm 5.5ft 7s 5s 20 27 mph 1007.8mb 80f 74f
4:50pm 6ft 7s 5s 20 25 mph 1007.2mb 80f 74f
3:50pm 6ft 7s 5s 18 22 mph 1006.8mb 80f 75f
2:50pm 7ft 7s 6s 22 27 mph 1006.4mb 80f 75f
1:50pm 6ft 8s 5s 20 25 mph 1006.4mb 80f 76f
12:50pm 5ft 7s 5s 20 22 mph 1006.7mb 80f 77f
11:50am 5ft 6s 5s 18 20 mph 1007.7mb 80f 77f
10:50am 5ft 7s 5s 16 18 mph 1008.3mb 80f 78f
9:50am 6ft 7s 5s 16 20 mph 1008.4mb 79f 78f